Time;durP1;ratioP1;P1;durP2;ratioP2;P2;SDS_P1;SDS_P2;PMS_P1;PMS_P2;Temp;Humidity;BMP_temperature;BMP_pressure;BME280_temperature;BME280_humidity;BME280_pressure;Samples;Min_cycle;Max_cycle;Signal;HPM_P1;HPM_P2
2021/08/16 00:00:37;;;;;;;5.72;1.42;;;;;;;;;;5033234;28;20403;-78
2021/08/16 00:03:02;;;;;;;4.40;1.48;;;;;;;;;;5022917;28;20037;-78
2021/08/16 00:05:27;;;;;;;5.15;1.40;;;;;;;;;;5040048;28;20097;-78
2021/08/16 00:07:53;;;;;;;5.03;1.67;;;;;;;;;;5022873;28;20528;-79
2021/08/16 00:10:18;;;;;;;4.97;1.55;;;;;;;;;;5051326;28;20093;-78
2021/08/16 00:12:44;;;;;;;6.40;1.65;;;;;;;;;;5037370;28;20067;-78
2021/08/16 00:15:10;;;;;;;5.72;1.58;;;;;;;;;;5019134;28;20154;-79
2021/08/16 00:17:35;;;;;;;4.88;2.08;;;;;;;;;;5033389;28;20036;-78
2021/08/16 00:20:01;;;;;;;5.00;1.58;;;;;;;;;;5044051;28;20415;-79
2021/08/16 00:22:26;;;;;;;7.65;1.95;;;;;;;;;;5048414;28;20033;-78
2021/08/16 00:24:52;;;;;;;3.42;1.30;;;;;;;;;;5034572;28;20086;-79
2021/08/16 00:27:17;;;;;;;5.72;1.73;;;;;;;;;;5033884;28;20040;-78
2021/08/16 00:29:43;;;;;;;5.93;1.50;;;;;;;;;;5026074;28;20037;-78
2021/08/16 00:32:08;;;;;;;5.55;1.63;;;;;;;;;;5031388;28;20049;-78
2021/08/16 00:34:34;;;;;;;4.28;1.33;;;;;;;;;;5013214;28;20033;-78
2021/08/16 00:37:02;;;;;;;5.03;1.27;;;;;;;;;;5032247;28;20045;-78
2021/08/16 00:39:27;;;;;;;5.30;1.90;;;;;;;;;;5020811;28;20036;-79
2021/08/16 00:41:52;;;;;;;6.28;1.40;;;;;;;;;;5027603;28;20625;-79
2021/08/16 00:44:18;;;;;;;8.45;2.28;;;;;;;;;;5036249;28;20044;-79
2021/08/16 00:46:43;;;;;;;3.83;1.10;;;;;;;;;;5036081;28;20174;-79
2021/08/16 00:49:09;;;;;;;6.38;1.95;;;;;;;;;;5040136;28;20047;-79
2021/08/16 00:51:36;;;;;;;4.50;1.17;;;;;;;;;;5013231;28;20040;-78
2021/08/16 00:54:08;;;;;;;3.85;1.30;;;;;;;;;;5032640;28;20510;-78
2021/08/16 00:56:34;;;;;;;5.57;1.35;;;;;;;;;;5024872;28;20056;-78
2021/08/16 00:59:00;;;;;;;3.75;1.20;;;;;;;;;;5017259;28;20068;-79
2021/08/16 01:01:26;;;;;;;4.72;1.80;;;;;;;;;;5053231;28;20064;-78
2021/08/16 01:03:51;;;;;;;4.45;1.50;;;;;;;;;;5045276;28;20033;-78
2021/08/16 01:06:17;;;;;;;3.83;1.48;;;;;;;;;;5041751;28;20068;-79
2021/08/16 01:08:45;;;;;;;4.40;1.63;;;;;;;;;;5053894;28;20175;-79
2021/08/16 01:11:11;;;;;;;5.97;1.40;;;;;;;;;;5032050;28;20095;-78
2021/08/16 01:13:36;;;;;;;4.63;1.40;;;;;;;;;;5036515;28;20490;-78
2021/08/16 01:16:03;;;;;;;4.18;1.25;;;;;;;;;;5034701;28;20059;-78
2021/08/16 01:18:32;;;;;;;3.42;1.10;;;;;;;;;;5032909;28;20051;-78
2021/08/16 01:20:57;;;;;;;4.65;1.35;;;;;;;;;;5049024;28;20163;-78
2021/08/16 01:23:23;;;;;;;5.10;1.38;;;;;;;;;;5024899;28;20477;-79
2021/08/16 01:25:48;;;;;;;3.00;0.88;;;;;;;;;;5004231;28;20047;-78
2021/08/16 01:28:21;;;;;;;3.58;1.55;;;;;;;;;;5033691;28;20037;-79
2021/08/16 01:30:51;;;;;;;5.57;1.40;;;;;;;;;;5056671;28;20518;-78
2021/08/16 01:33:16;;;;;;;5.72;1.73;;;;;;;;;;5022294;28;20563;-78
2021/08/16 01:35:42;;;;;;;3.58;1.25;;;;;;;;;;5023403;28;20028;-78
2021/08/16 01:38:07;;;;;;;5.90;1.38;;;;;;;;;;5027742;28;20037;-78
2021/08/16 01:40:33;;;;;;;4.25;1.48;;;;;;;;;;5024537;28;20033;-78
2021/08/16 01:42:58;;;;;;;5.07;1.10;;;;;;;;;;5047625;28;20119;-79
2021/08/16 01:45:24;;;;;;;4.53;1.23;;;;;;;;;;5003845;28;20025;-79
2021/08/16 01:47:52;;;;;;;5.50;1.50;;;;;;;;;;5031270;28;20036;-78
2021/08/16 01:50:18;;;;;;;5.53;1.60;;;;;;;;;;5041299;28;20033;-78
2021/08/16 01:52:43;;;;;;;5.35;1.38;;;;;;;;;;5011435;28;20415;-79
2021/08/16 01:55:09;;;;;;;5.38;1.00;;;;;;;;;;5053829;28;20086;-78
2021/08/16 01:57:35;;;;;;;4.13;1.27;;;;;;;;;;5015569;28;20083;-78
2021/08/16 02:00:00;;;;;;;4.88;1.45;;;;;;;;;;5061491;28;20061;-78
2021/08/16 02:02:26;;;;;;;5.97;1.45;;;;;;;;;;5032931;28;20033;-78
2021/08/16 02:04:51;;;;;;;3.60;0.98;;;;;;;;;;5037882;28;20028;-79
2021/08/16 02:07:17;;;;;;;2.83;1.02;;;;;;;;;;5013778;28;20041;-78
2021/08/16 02:09:42;;;;;;;3.15;1.20;;;;;;;;;;5031991;28;20036;-78
2021/08/16 02:12:08;;;;;;;4.43;1.30;;;;;;;;;;5035021;28;20045;-78
2021/08/16 02:14:33;;;;;;;4.57;1.00;;;;;;;;;;5036050;28;20036;-78
2021/08/16 02:16:59;;;;;;;4.85;1.83;;;;;;;;;;5037750;28;20457;-78
2021/08/16 02:19:24;;;;;;;2.90;0.77;;;;;;;;;;5041097;28;20055;-79
2021/08/16 02:21:50;;;;;;;4.18;1.88;;;;;;;;;;5042441;28;20498;-78
2021/08/16 02:24:16;;;;;;;3.45;0.85;;;;;;;;;;5053825;28;20024;-78
2021/08/16 02:26:41;;;;;;;3.80;1.40;;;;;;;;;;5034061;28;20036;-78
2021/08/16 02:29:09;;;;;;;2.42;1.02;;;;;;;;;;5051740;28;20044;-78
2021/08/16 02:31:34;;;;;;;3.13;0.90;;;;;;;;;;5019582;28;20128;-79
2021/08/16 02:34:00;;;;;;;4.68;0.95;;;;;;;;;;5022148;28;20044;-78
2021/08/16 02:36:25;;;;;;;6.32;1.38;;;;;;;;;;5034978;28;20043;-78
2021/08/16 02:38:51;;;;;;;4.13;1.10;;;;;;;;;;5028235;28;20064;-78
2021/08/16 02:41:16;;;;;;;4.03;0.93;;;;;;;;;;5022141;28;20419;-79
2021/08/16 02:43:42;;;;;;;4.05;0.98;;;;;;;;;;5036574;28;20490;-79
2021/08/16 02:46:07;;;;;;;3.33;0.90;;;;;;;;;;5019794;28;20047;-78
2021/08/16 02:48:33;;;;;;;5.40;1.48;;;;;;;;;;5040347;28;20032;-79
2021/08/16 02:50:59;;;;;;;3.58;1.02;;;;;;;;;;5031519;28;20568;-78
2021/08/16 02:53:24;;;;;;;3.53;1.15;;;;;;;;;;5025735;28;20041;-78
2021/08/16 02:55:50;;;;;;;4.95;1.20;;;;;;;;;;5039491;28;20037;-79
2021/08/16 02:58:15;;;;;;;6.60;1.30;;;;;;;;;;5035269;28;20037;-78
2021/08/16 03:00:41;;;;;;;2.65;0.90;;;;;;;;;;5019638;28;20419;-78
2021/08/16 03:03:06;;;;;;;3.60;1.13;;;;;;;;;;5018628;28;20363;-78
2021/08/16 03:05:33;;;;;;;3.97;1.33;;;;;;;;;;5034089;28;20039;-79
2021/08/16 03:07:58;;;;;;;4.43;1.10;;;;;;;;;;5043101;28;20074;-78
2021/08/16 03:10:24;;;;;;;5.30;0.90;;;;;;;;;;5051000;28;20063;-78
2021/08/16 03:12:49;;;;;;;4.75;1.65;;;;;;;;;;5018204;28;20498;-79
2021/08/16 03:15:15;;;;;;;4.93;1.05;;;;;;;;;;5021269;28;20032;-79
2021/08/16 03:17:40;;;;;;;2.90;0.98;;;;;;;;;;5037872;28;20510;-79
2021/08/16 03:20:07;;;;;;;3.85;1.00;;;;;;;;;;5019057;28;20052;-78
2021/08/16 03:22:32;;;;;;;3.63;1.38;;;;;;;;;;5035069;28;20037;-78
2021/08/16 03:24:58;;;;;;;6.45;1.58;;;;;;;;;;5017785;28;20059;-79
2021/08/16 03:27:23;;;;;;;4.93;1.58;;;;;;;;;;5017755;28;20033;-78
2021/08/16 03:29:49;;;;;;;7.10;1.48;;;;;;;;;;5017703;28;20041;-78
2021/08/16 03:32:14;;;;;;;4.63;1.30;;;;;;;;;;5043028;28;20518;-78
2021/08/16 03:34:40;;;;;;;4.03;1.33;;;;;;;;;;5037352;28;20055;-78
2021/08/16 03:37:06;;;;;;;4.18;1.50;;;;;;;;;;5053821;28;20039;-79
2021/08/16 03:39:31;;;;;;;5.22;1.73;;;;;;;;;;5052437;28;20110;-78
2021/08/16 03:41:57;;;;;;;8.05;2.03;;;;;;;;;;5029872;28;20450;-78
2021/08/16 03:44:22;;;;;;;4.68;1.50;;;;;;;;;;5052085;28;20040;-78
2021/08/16 03:46:48;;;;;;;5.70;1.65;;;;;;;;;;5035057;28;20047;-78
2021/08/16 03:49:13;;;;;;;5.43;2.15;;;;;;;;;;5027342;28;20132;-78
2021/08/16 03:51:38;;;;;;;6.05;1.65;;;;;;;;;;5035327;28;20055;-78
2021/08/16 03:54:04;;;;;;;7.25;2.13;;;;;;;;;;5038698;28;20039;-78
2021/08/16 03:56:29;;;;;;;6.85;1.90;;;;;;;;;;5045075;28;20028;-78
2021/08/16 03:58:55;;;;;;;9.18;2.22;;;;;;;;;;5051255;28;20037;-78
2021/08/16 04:01:20;;;;;;;7.95;1.75;;;;;;;;;;5032796;28;20041;-78
2021/08/16 04:03:46;;;;;;;4.15;1.40;;;;;;;;;;5003295;28;20054;-78
2021/08/16 04:06:12;;;;;;;7.80;1.60;;;;;;;;;;5042268;28;20051;-78
2021/08/16 04:08:39;;;;;;;6.88;1.60;;;;;;;;;;5051107;28;20045;-79
2021/08/16 04:11:06;;;;;;;5.07;1.98;;;;;;;;;;5049118;28;20037;-79
2021/08/16 04:13:32;;;;;;;4.22;1.75;;;;;;;;;;5020275;28;20434;-79
2021/08/16 04:15:57;;;;;;;4.28;1.40;;;;;;;;;;5034679;28;20048;-78
2021/08/16 04:18:23;;;;;;;5.72;1.55;;;;;;;;;;5041264;28;20073;-78
2021/08/16 04:20:48;;;;;;;4.63;1.20;;;;;;;;;;5025732;28;20041;-78
2021/08/16 04:23:14;;;;;;;3.88;1.40;;;;;;;;;;5003569;28;20457;-78
2021/08/16 04:25:39;;;;;;;5.50;1.30;;;;;;;;;;5034814;28;20086;-78
2021/08/16 04:28:05;;;;;;;5.47;1.50;;;;;;;;;;5017512;28;20048;-78
2021/08/16 04:30:30;;;;;;;5.68;1.40;;;;;;;;;;5035235;28;20438;-78
2021/08/16 04:32:56;;;;;;;5.82;2.08;;;;;;;;;;5034632;28;20040;-78
2021/08/16 04:35:22;;;;;;;3.63;1.40;;;;;;;;;;5026883;28;20067;-79
2021/08/16 04:37:47;;;;;;;6.55;1.73;;;;;;;;;;5034099;28;20044;-79
2021/08/16 04:40:14;;;;;;;3.90;1.30;;;;;;;;;;5017711;28;20056;-78
2021/08/16 04:42:39;;;;;;;6.00;1.50;;;;;;;;;;5035542;28;20080;-78
2021/08/16 04:45:06;;;;;;;4.93;1.00;;;;;;;;;;5051905;28;20052;-78
2021/08/16 04:47:32;;;;;;;4.40;1.83;;;;;;;;;;5032056;28;20067;-79
2021/08/16 04:49:57;;;;;;;5.95;1.30;;;;;;;;;;5045154;28;20060;-79
2021/08/16 04:52:23;;;;;;;5.80;1.92;;;;;;;;;;5025150;28;20107;-79
2021/08/16 04:54:49;;;;;;;4.88;1.00;;;;;;;;;;5045571;28;20051;-79
2021/08/16 04:57:14;;;;;;;4.38;1.25;;;;;;;;;;5027759;28;20064;-78
2021/08/16 04:59:40;;;;;;;3.78;1.67;;;;;;;;;;5016754;28;20041;-78
2021/08/16 05:02:05;;;;;;;5.10;1.40;;;;;;;;;;5033904;28;20048;-78
2021/08/16 05:04:31;;;;;;;5.43;1.48;;;;;;;;;;5033478;28;20057;-79
2021/08/16 05:06:56;;;;;;;5.05;1.40;;;;;;;;;;5018189;28;20040;-79
2021/08/16 05:09:22;;;;;;;5.47;1.27;;;;;;;;;;5017782;28;20021;-79
2021/08/16 05:11:47;;;;;;;3.92;1.23;;;;;;;;;;5039831;28;20041;-79
2021/08/16 05:14:13;;;;;;;5.95;1.40;;;;;;;;;;5016890;28;20021;-78
2021/08/16 05:16:38;;;;;;;5.65;1.38;;;;;;;;;;5033478;28;20075;-79
2021/08/16 05:19:04;;;;;;;4.22;1.10;;;;;;;;;;5032673;28;20120;-79
2021/08/16 05:21:30;;;;;;;4.65;1.00;;;;;;;;;;5016427;28;20047;-78
2021/08/16 05:23:56;;;;;;;5.13;1.55;;;;;;;;;;5049411;28;20029;-79
2021/08/16 05:26:21;;;;;;;4.05;1.38;;;;;;;;;;5052691;28;20506;-79
2021/08/16 05:28:47;;;;;;;3.30;1.00;;;;;;;;;;5039262;28;20465;-79
2021/08/16 05:31:12;;;;;;;4.88;1.63;;;;;;;;;;5036036;28;20037;-79
2021/08/16 05:33:38;;;;;;;6.32;1.45;;;;;;;;;;5037024;28;20041;-79
2021/08/16 05:36:03;;;;;;;4.97;1.40;;;;;;;;;;5045217;28;20132;-79
2021/08/16 05:38:29;;;;;;;3.63;1.20;;;;;;;;;;5047039;28;20040;-79
2021/08/16 05:40:54;;;;;;;3.05;1.05;;;;;;;;;;5023307;28;20037;-79
2021/08/16 05:43:20;;;;;;;3.78;1.10;;;;;;;;;;5054865;28;20056;-78
2021/08/16 05:45:45;;;;;;;3.55;1.30;;;;;;;;;;5051580;28;20063;-79
2021/08/16 05:48:11;;;;;;;2.80;1.08;;;;;;;;;;5044270;28;20037;-79
2021/08/16 05:50:36;;;;;;;3.53;1.02;;;;;;;;;;5052530;28;20029;-79
2021/08/16 05:53:02;;;;;;;3.67;1.58;;;;;;;;;;5035984;28;20750;-79
2021/08/16 05:55:27;;;;;;;4.25;1.10;;;;;;;;;;5008651;28;20426;-79
2021/08/16 05:57:52;;;;;;;4.32;1.00;;;;;;;;;;5019470;28;20552;-79
2021/08/16 06:00:19;;;;;;;3.83;1.50;;;;;;;;;;5020431;28;20041;-79
2021/08/16 06:02:44;;;;;;;3.35;1.23;;;;;;;;;;5027631;28;20498;-78
2021/08/16 06:05:10;;;;;;;5.90;1.30;;;;;;;;;;5027315;28;20044;-79
2021/08/16 06:07:35;;;;;;;4.97;1.33;;;;;;;;;;5030660;28;20037;-79
2021/08/16 06:10:04;;;;;;;4.10;1.42;;;;;;;;;;5032439;28;20047;-79
2021/08/16 06:12:29;;;;;;;6.82;1.02;;;;;;;;;;5040466;28;20415;-78
2021/08/16 06:14:55;;;;;;;4.68;1.60;;;;;;;;;;5032500;28;20033;-78
2021/08/16 06:17:20;;;;;;;4.75;1.48;;;;;;;;;;5041790;28;20036;-78
2021/08/16 06:19:46;;;;;;;5.72;1.60;;;;;;;;;;5058355;28;20036;-78
2021/08/16 06:22:14;;;;;;;4.55;1.40;;;;;;;;;;5015604;28;20041;-78
2021/08/16 06:24:39;;;;;;;5.68;1.50;;;;;;;;;;5019559;28;20063;-78
2021/08/16 06:27:05;;;;;;;6.15;1.95;;;;;;;;;;5051104;28;20519;-78
2021/08/16 06:29:30;;;;;;;5.97;2.03;;;;;;;;;;5035443;28;20040;-79
2021/08/16 06:31:56;;;;;;;8.40;2.35;;;;;;;;;;5010803;28;20127;-79
2021/08/16 06:34:23;;;;;;;6.10;1.58;;;;;;;;;;5054429;28;20037;-79
2021/08/16 06:36:55;;;;;;;4.15;1.17;;;;;;;;;;5030959;28;20041;-80
2021/08/16 06:39:22;;;;;;;6.30;1.75;;;;;;;;;;5003482;28;20384;-79
2021/08/16 06:41:52;;;;;;;5.88;1.77;;;;;;;;;;5035554;28;20044;-80
2021/08/16 06:44:18;;;;;;;4.28;1.55;;;;;;;;;;5036745;28;20043;-79
2021/08/16 06:46:44;;;;;;;5.25;1.85;;;;;;;;;;5034102;28;20037;-79
2021/08/16 06:49:10;;;;;;;4.45;1.83;;;;;;;;;;5032357;28;20129;-80
2021/08/16 06:51:35;;;;;;;6.32;1.77;;;;;;;;;;5051886;28;20033;-78
2021/08/16 06:54:03;;;;;;;11.98;2.53;;;;;;;;;;5028488;28;20126;-78
2021/08/16 06:56:28;;;;;;;6.00;2.15;;;;;;;;;;5051562;28;20405;-78
2021/08/16 06:58:55;;;;;;;7.03;1.83;;;;;;;;;;5018802;28;20044;-78
2021/08/16 07:01:25;;;;;;;4.40;1.70;;;;;;;;;;5053818;28;20033;-78
2021/08/16 07:03:51;;;;;;;7.28;1.95;;;;;;;;;;5038620;28;20040;-78
2021/08/16 07:06:16;;;;;;;6.47;1.95;;;;;;;;;;5055078;28;20028;-78
2021/08/16 07:08:42;;;;;;;4.63;1.58;;;;;;;;;;5071172;28;20081;-78
2021/08/16 07:11:07;;;;;;;4.63;1.83;;;;;;;;;;5037606;28;20033;-78
2021/08/16 07:13:33;;;;;;;4.03;1.30;;;;;;;;;;5034490;28;20560;-78
2021/08/16 07:15:58;;;;;;;5.80;1.50;;;;;;;;;;5018290;28;20037;-78
2021/08/16 07:18:24;;;;;;;8.43;2.00;;;;;;;;;;5029637;28;20045;-78
2021/08/16 07:20:49;;;;;;;5.63;1.45;;;;;;;;;;5071095;28;20448;-78
2021/08/16 07:23:14;;;;;;;6.50;1.63;;;;;;;;;;5054329;28;20415;-78
2021/08/16 07:25:40;;;;;;;14.93;2.50;;;;;;;;;;5018825;28;20025;-78
2021/08/16 07:28:06;;;;;;;8.30;2.20;;;;;;;;;;5035394;28;20036;-78
2021/08/16 07:30:31;;;;;;;7.30;2.35;;;;;;;;;;5001649;28;20033;-78
2021/08/16 07:32:57;;;;;;;7.88;2.67;;;;;;;;;;5028756;28;20033;-78
2021/08/16 07:35:22;;;;;;;9.95;1.90;;;;;;;;;;5043823;28;20032;-78
2021/08/16 07:37:47;;;;;;;7.55;2.35;;;;;;;;;;5037799;28;20032;-78
2021/08/16 07:40:13;;;;;;;3.72;1.73;;;;;;;;;;5050538;28;20068;-78
2021/08/16 07:42:39;;;;;;;8.48;2.33;;;;;;;;;;5034225;28;20084;-78
2021/08/16 07:45:05;;;;;;;6.85;1.90;;;;;;;;;;5050609;28;20065;-78
2021/08/16 07:47:31;;;;;;;6.15;1.63;;;;;;;;;;5043941;28;20051;-79
2021/08/16 07:49:56;;;;;;;6.80;1.83;;;;;;;;;;5050487;28;20488;-78
2021/08/16 07:52:22;;;;;;;4.25;1.25;;;;;;;;;;5054002;28;20037;-78
2021/08/16 07:54:47;;;;;;;4.40;1.30;;;;;;;;;;5059390;28;20494;-78
2021/08/16 07:57:13;;;;;;;4.63;1.40;;;;;;;;;;5057439;28;20452;-78
2021/08/16 07:59:38;;;;;;;8.85;2.17;;;;;;;;;;5057306;28;20048;-78
2021/08/16 08:02:04;;;;;;;3.38;1.23;;;;;;;;;;5065061;28;20040;-78
2021/08/16 08:04:29;;;;;;;5.57;1.30;;;;;;;;;;5068347;28;20033;-78
2021/08/16 08:06:55;;;;;;;5.00;1.20;;;;;;;;;;5039454;28;20045;-78
2021/08/16 08:09:21;;;;;;;5.03;1.92;;;;;;;;;;5046120;28;20044;-78
2021/08/16 08:11:46;;;;;;;5.80;1.30;;;;;;;;;;5036309;28;20029;-78
2021/08/16 08:14:12;;;;;;;5.88;1.85;;;;;;;;;;5051367;28;20033;-78
2021/08/16 08:16:38;;;;;;;5.20;1.88;;;;;;;;;;5033564;28;20415;-78
2021/08/16 08:19:03;;;;;;;8.77;1.60;;;;;;;;;;5034837;28;20145;-78
2021/08/16 08:21:29;;;;;;;6.28;1.67;;;;;;;;;;5018347;28;20048;-78
2021/08/16 08:23:54;;;;;;;6.13;1.77;;;;;;;;;;5053065;28;20036;-78
2021/08/16 08:26:19;;;;;;;5.97;1.65;;;;;;;;;;5048056;28;20032;-78
2021/08/16 08:28:45;;;;;;;9.07;1.80;;;;;;;;;;5054001;28;20043;-78
2021/08/16 08:31:10;;;;;;;6.45;2.00;;;;;;;;;;5050228;28;20036;-78
2021/08/16 08:33:37;;;;;;;6.50;2.10;;;;;;;;;;5033618;28;20049;-78
2021/08/16 08:36:03;;;;;;;5.32;1.13;;;;;;;;;;5033722;28;20036;-78
2021/08/16 08:38:28;;;;;;;10.75;1.85;;;;;;;;;;5049743;28;20045;-78
2021/08/16 08:40:56;;;;;;;4.60;1.65;;;;;;;;;;5049090;28;20044;-78
2021/08/16 08:43:22;;;;;;;6.65;1.70;;;;;;;;;;5050319;28;20109;-78
2021/08/16 08:45:47;;;;;;;6.60;1.50;;;;;;;;;;5049805;28;20490;-78
2021/08/16 08:48:17;;;;;;;5.90;1.52;;;;;;;;;;5053317;28;20547;-78
2021/08/16 08:50:42;;;;;;;5.22;1.67;;;;;;;;;;5034540;28;20495;-78
2021/08/16 08:53:08;;;;;;;8.35;1.95;;;;;;;;;;5018659;28;20522;-79
2021/08/16 08:55:34;;;;;;;7.22;1.75;;;;;;;;;;5030452;28;20082;-78
2021/08/16 08:58:00;;;;;;;5.05;1.50;;;;;;;;;;5067098;28;20029;-78
2021/08/16 09:00:26;;;;;;;5.93;1.58;;;;;;;;;;5038074;28;20021;-78
2021/08/16 09:02:55;;;;;;;8.82;1.58;;;;;;;;;;5040236;28;20043;-78
2021/08/16 09:05:21;;;;;;;7.55;1.80;;;;;;;;;;5056011;28;20032;-78
2021/08/16 09:07:46;;;;;;;6.85;1.75;;;;;;;;;;5072052;28;20043;-78
2021/08/16 09:10:15;;;;;;;3.75;1.73;;;;;;;;;;5055213;28;20032;-78
2021/08/16 09:12:42;;;;;;;5.18;1.75;;;;;;;;;;5056220;28;20045;-78
2021/08/16 09:15:17;;;;;;;7.93;1.73;;;;;;;;;;5040060;28;20032;-78
2021/08/16 09:17:43;;;;;;;4.93;1.13;;;;;;;;;;5054842;28;20044;-79
2021/08/16 09:20:26;;;;;;;5.63;1.55;;;;;;;;;;5038402;28;20051;-78
2021/08/16 09:22:59;;;;;;;3.72;1.40;;;;;;;;;;5055416;28;20091;-79
2021/08/16 09:25:26;;;;;;;8.80;1.55;;;;;;;;;;5039830;28;20067;-79
2021/08/16 09:27:52;;;;;;;3.47;1.35;;;;;;;;;;5055309;28;20040;-79
2021/08/16 09:30:28;;;;;;;5.13;1.45;;;;;;;;;;5072960;28;20051;-79
2021/08/16 09:32:54;;;;;;;4.50;1.20;;;;;;;;;;5036345;28;20041;-79
2021/08/16 09:35:20;;;;;;;3.58;1.20;;;;;;;;;;5039581;28;20028;-79
2021/08/16 09:37:56;;;;;;;6.25;1.83;;;;;;;;;;5034843;28;20036;-79
2021/08/16 09:40:21;;;;;;;7.22;1.65;;;;;;;;;;5046691;28;20032;-79
2021/08/16 09:42:50;;;;;;;3.25;1.23;;;;;;;;;;5050666;28;20052;-78
2021/08/16 09:45:30;;;;;;;4.13;1.20;;;;;;;;;;5056050;28;20036;-79
2021/08/16 09:47:58;;;;;;;6.70;3.80;;;;;;;;;;5020460;28;20507;-80
2021/08/16 09:50:47;;;;;;;8.75;5.32;;;;;;;;;;5052263;28;20043;-80
2021/08/16 09:53:20;;;;;;;8.30;4.25;;;;;;;;;;5035754;28;20094;-80
2021/08/16 09:55:47;;;;;;;8.10;3.58;;;;;;;;;;5019940;28;20071;-79
2021/08/16 09:58:14;;;;;;;6.97;2.83;;;;;;;;;;5052807;28;20036;-79
2021/08/16 10:00:40;;;;;;;5.28;2.53;;;;;;;;;;5034293;28;20053;-79
2021/08/16 10:03:07;;;;;;;5.50;2.72;;;;;;;;;;5049968;28;20033;-79
2021/08/16 10:05:35;;;;;;;4.75;2.35;;;;;;;;;;5020590;28;20064;-79
2021/08/16 10:08:00;;;;;;;3.13;1.52;;;;;;;;;;5045203;28;20047;-79
2021/08/16 10:10:26;;;;;;;5.60;2.03;;;;;;;;;;5052162;28;20442;-79
2021/08/16 10:12:52;;;;;;;3.80;1.60;;;;;;;;;;5032125;28;20507;-79
2021/08/16 10:15:17;;;;;;;5.97;2.08;;;;;;;;;;5034592;28;20033;-78
2021/08/16 10:17:42;;;;;;;3.65;1.42;;;;;;;;;;5034929;28;20051;-78
2021/08/16 10:20:08;;;;;;;3.05;1.25;;;;;;;;;;5035735;28;20037;-79
2021/08/16 10:22:37;;;;;;;3.88;1.48;;;;;;;;;;5061695;28;20044;-79
2021/08/16 10:25:09;;;;;;;5.03;1.20;;;;;;;;;;5054848;28;20035;-80
2021/08/16 10:27:34;;;;;;;5.15;1.33;;;;;;;;;;5068741;28;20486;-79
2021/08/16 10:30:05;;;;;;;3.13;1.10;;;;;;;;;;5021938;28;20044;-79
2021/08/16 10:32:30;;;;;;;3.58;1.10;;;;;;;;;;5055137;28;20024;-79
2021/08/16 10:35:13;;;;;;;2.40;0.93;;;;;;;;;;5036798;28;20046;-79
2021/08/16 10:37:43;;;;;;;3.53;1.20;;;;;;;;;;5050398;28;20044;-82
2021/08/16 10:40:18;;;;;;;4.63;1.13;;;;;;;;;;5043749;28;20042;-82
2021/08/16 10:42:43;;;;;;;3.15;1.20;;;;;;;;;;5053819;28;20071;-81
2021/08/16 10:45:09;;;;;;;3.05;0.88;;;;;;;;;;5038194;28;20106;-81
2021/08/16 10:47:35;;;;;;;2.63;1.33;;;;;;;;;;5039006;28;20124;-81
2021/08/16 10:50:12;;;;;;;3.28;1.17;;;;;;;;;;5019189;28;20450;-80
2021/08/16 10:52:39;;;;;;;3.95;1.38;;;;;;;;;;5055032;28;20029;-81
2021/08/16 10:55:13;;;;;;;3.67;1.20;;;;;;;;;;5053515;28;20047;-80
2021/08/16 10:57:50;;;;;;;2.92;1.00;;;;;;;;;;5070318;28;20044;-80
2021/08/16 11:00:21;;;;;;;4.97;1.30;;;;;;;;;;5053312;28;20094;-79
2021/08/16 11:02:53;;;;;;;3.83;1.42;;;;;;;;;;5053562;28;20036;-79
2021/08/16 11:05:27;;;;;;;;;;;;;;;;;;5021356;28;20032;-79
2021/08/16 11:07:52;;;;;;;3.38;1.02;;;;;;;;;;5051982;28;19916;-79
2021/08/16 11:10:18;;;;;;;3.03;1.23;;;;;;;;;;5053308;28;20047;-79
2021/08/16 11:12:44;;;;;;;2.30;1.20;;;;;;;;;;5052945;28;20094;-80
2021/08/16 11:15:14;;;;;;;3.08;1.25;;;;;;;;;;5035876;28;20036;-79
2021/08/16 11:17:40;;;;;;;3.15;1.13;;;;;;;;;;5044579;28;20036;-79
2021/08/16 11:20:15;;;;;;;7.05;1.58;;;;;;;;;;5035276;28;20044;-80
2021/08/16 11:22:45;;;;;;;4.00;1.33;;;;;;;;;;5037138;28;20044;-79
2021/08/16 11:25:12;;;;;;;5.35;1.20;;;;;;;;;;5018940;28;20498;-79
2021/08/16 11:27:41;;;;;;;4.22;1.45;;;;;;;;;;5051433;28;20558;-79
2021/08/16 11:30:07;;;;;;;5.30;1.75;;;;;;;;;;5029028;28;20487;-79
2021/08/16 11:32:33;;;;;;;5.15;1.42;;;;;;;;;;5062027;28;20047;-80
2021/08/16 11:34:59;;;;;;;6.78;1.55;;;;;;;;;;5054059;28;20040;-79
2021/08/16 11:37:29;;;;;;;5.18;1.80;;;;;;;;;;5037372;28;20040;-80
2021/08/16 11:39:55;;;;;;;4.68;1.90;;;;;;;;;;5021274;28;20398;-80
2021/08/16 11:42:22;;;;;;;4.75;1.80;;;;;;;;;;5064233;28;20384;-79
2021/08/16 11:44:59;;;;;;;5.43;2.17;;;;;;;;;;5050863;28;20032;-79
2021/08/16 11:47:38;;;;;;;5.75;1.83;;;;;;;;;;5042893;28;20025;-79
2021/08/16 11:50:11;;;;;;;4.90;1.90;;;;;;;;;;5035284;28;20048;-79
2021/08/16 11:52:36;;;;;;;;;;;;;;;;;;5039585;28;20037;-80
2021/08/16 11:55:05;;;;;;;5.63;2.10;;;;;;;;;;5050761;28;19908;-79
2021/08/16 11:57:30;;;;;;;7.60;2.40;;;;;;;;;;5045811;28;20407;-80
2021/08/16 11:59:56;;;;;;;5.28;2.33;;;;;;;;;;5037476;28;20029;-80
2021/08/16 12:02:23;;;;;;;5.20;2.22;;;;;;;;;;5042858;28;20041;-80
2021/08/16 12:04:49;;;;;;;7.05;2.50;;;;;;;;;;5017711;28;20419;-79
2021/08/16 12:07:18;;;;;;;5.63;2.80;;;;;;;;;;5034092;28;20041;-79
2021/08/16 12:09:43;;;;;;;5.82;3.00;;;;;;;;;;5017623;28;20124;-79
2021/08/16 12:12:10;;;;;;;8.65;3.38;;;;;;;;;;5002038;28;20102;-79
2021/08/16 12:14:37;;;;;;;8.05;3.00;;;;;;;;;;5017939;28;20044;-79
2021/08/16 12:17:03;;;;;;;6.65;3.75;;;;;;;;;;5011238;28;20029;-80
2021/08/16 12:19:29;;;;;;;8.88;3.65;;;;;;;;;;5033489;28;20025;-80
2021/08/16 12:22:08;;;;;;;7.00;3.63;;;;;;;;;;5029480;28;20049;-79
2021/08/16 12:24:34;;;;;;;10.35;4.05;;;;;;;;;;5034028;28;20100;-80
2021/08/16 12:27:05;;;;;;;7.63;3.80;;;;;;;;;;5029318;28;20036;-80
2021/08/16 12:29:41;;;;;;;7.50;3.80;;;;;;;;;;5033704;28;20029;-79
2021/08/16 12:32:16;;;;;;;8.75;3.65;;;;;;;;;;5034219;28;20035;-79
2021/08/16 12:34:41;;;;;;;7.68;3.70;;;;;;;;;;5051193;28;20029;-79
2021/08/16 12:37:07;;;;;;;9.05;4.35;;;;;;;;;;5020807;28;20454;-79
2021/08/16 12:39:33;;;;;;;8.02;4.22;;;;;;;;;;5007067;28;20033;-79
2021/08/16 12:42:08;;;;;;;9.80;6.18;;;;;;;;;;5041009;28;20448;-80
2021/08/16 12:44:35;;;;;;;9.82;5.00;;;;;;;;;;5074038;28;20086;-79
2021/08/16 12:47:02;;;;;;;13.45;7.78;;;;;;;;;;5037213;28;20041;-79
2021/08/16 12:49:27;;;;;;;12.38;6.43;;;;;;;;;;5039732;28;20037;-80
2021/08/16 12:51:53;;;;;;;19.95;12.45;;;;;;;;;;5044869;28;20089;-80
2021/08/16 12:54:18;;;;;;;17.17;7.78;;;;;;;;;;5048676;28;20102;-79
2021/08/16 12:56:43;;;;;;;15.68;8.50;;;;;;;;;;5026496;28;20048;-79
2021/08/16 12:59:09;;;;;;;15.38;6.82;;;;;;;;;;5041222;28;20056;-80
2021/08/16 13:01:34;;;;;;;12.13;7.38;;;;;;;;;;5015276;28;20025;-80
2021/08/16 13:04:00;;;;;;;14.25;7.78;;;;;;;;;;5039685;28;20368;-80
2021/08/16 13:06:26;;;;;;;10.13;6.88;;;;;;;;;;5003887;28;20467;-79
2021/08/16 13:08:51;;;;;;;15.75;7.95;;;;;;;;;;5013349;28;20033;-79
2021/08/16 13:11:17;;;;;;;15.18;9.35;;;;;;;;;;5022203;28;20050;-80
2021/08/16 13:13:42;;;;;;;12.98;8.63;;;;;;;;;;5020162;28;20045;-79
2021/08/16 13:16:08;;;;;;;15.15;10.23;;;;;;;;;;5032497;28;20044;-80
2021/08/16 13:18:34;;;;;;;16.48;10.93;;;;;;;;;;5020263;28;20037;-79
2021/08/16 13:20:59;;;;;;;13.38;10.50;;;;;;;;;;5020555;28;20049;-80
2021/08/16 13:23:25;;;;;;;20.15;12.30;;;;;;;;;;5037580;28;20082;-79
2021/08/16 13:25:50;;;;;;;14.25;12.02;;;;;;;;;;5020145;28;20049;-80
2021/08/16 13:28:16;;;;;;;18.23;12.05;;;;;;;;;;5035468;28;20036;-80
2021/08/16 13:30:43;;;;;;;15.15;12.57;;;;;;;;;;5062185;28;20032;-77
2021/08/16 13:33:09;;;;;;;16.98;12.68;;;;;;;;;;5043072;28;20044;-78
2021/08/16 13:35:36;;;;;;;15.98;11.93;;;;;;;;;;5037212;28;20033;-77
2021/08/16 13:38:01;;;;;;;17.08;13.50;;;;;;;;;;5020396;28;20041;-79
2021/08/16 13:40:27;;;;;;;15.48;12.70;;;;;;;;;;5052621;28;20082;-78
2021/08/16 13:42:52;;;;;;;15.55;12.68;;;;;;;;;;5039559;28;20453;-78
2021/08/16 13:45:18;;;;;;;17.02;14.45;;;;;;;;;;5065869;28;20078;-78
2021/08/16 13:47:43;;;;;;;17.65;13.50;;;;;;;;;;5054181;28;20041;-78
2021/08/16 13:50:09;;;;;;;19.55;15.13;;;;;;;;;;5019772;28;20057;-78
2021/08/16 13:52:34;;;;;;;18.13;15.68;;;;;;;;;;5003499;28;20029;-77
2021/08/16 13:55:00;;;;;;;17.77;14.73;;;;;;;;;;5036068;28;20057;-77
2021/08/16 13:57:25;;;;;;;17.90;14.55;;;;;;;;;;5052781;28;20033;-78
2021/08/16 13:59:51;;;;;;;22.38;14.73;;;;;;;;;;5019780;28;20033;-80
2021/08/16 14:02:16;;;;;;;19.10;15.13;;;;;;;;;;5013853;28;20029;-80
2021/08/16 14:04:43;;;;;;;18.23;14.88;;;;;;;;;;5022342;28;20036;-79
2021/08/16 14:07:09;;;;;;;18.65;14.75;;;;;;;;;;5056026;28;20479;-78
2021/08/16 14:09:34;;;;;;;18.10;14.88;;;;;;;;;;5054188;28;20032;-79
2021/08/16 14:12:01;;;;;;;18.92;14.70;;;;;;;;;;5064145;28;20040;-79
2021/08/16 14:14:26;;;;;;;17.58;14.25;;;;;;;;;;5023428;28;20487;-79
2021/08/16 14:16:52;;;;;;;18.67;14.00;;;;;;;;;;5021492;28;20037;-79
2021/08/16 14:19:17;;;;;;;21.85;14.50;;;;;;;;;;5055365;28;20618;-78
2021/08/16 14:21:42;;;;;;;21.92;15.07;;;;;;;;;;5052870;28;20490;-79
2021/08/16 14:24:08;;;;;;;100.97;19.60;;;;;;;;;;5058511;28;20028;-79
2021/08/16 14:26:37;;;;;;;39.00;14.82;;;;;;;;;;5075639;28;20542;-79
2021/08/16 14:29:03;;;;;;;25.08;15.23;;;;;;;;;;5059656;28;20046;-79
2021/08/16 14:31:30;;;;;;;21.75;14.45;;;;;;;;;;5075767;28;20409;-79
2021/08/16 14:33:55;;;;;;;22.90;14.60;;;;;;;;;;5053864;28;20044;-79
2021/08/16 14:36:21;;;;;;;19.27;13.52;;;;;;;;;;5043999;28;20037;-79